createdAt,value
2023-11-21T00:01:23.613Z,102409.97
2023-11-21T00:03:33.175Z,102406.73
2023-11-21T00:05:42.820Z,102410.35
2023-11-21T00:07:53.022Z,102404.94
2023-11-21T00:10:02.570Z,102406.07
2023-11-21T00:12:12.608Z,102405.84
2023-11-21T00:14:21.969Z,102410.58
2023-11-21T00:16:31.323Z,102411.14
2023-11-21T00:18:40.984Z,102414.78
2023-11-21T00:20:50.356Z,102405.71
2023-11-21T00:23:01.320Z,102402.27
2023-11-21T00:25:12.232Z,102398.52
2023-11-21T00:27:21.904Z,102396.84
2023-11-21T00:29:31.613Z,102400.48
2023-11-21T00:31:41.423Z,102398.98
2023-11-21T00:33:50.842Z,102395.71
2023-11-21T00:36:00.594Z,102390.80
2023-11-21T00:38:11.007Z,102397.34
2023-11-21T00:40:22.751Z,102390.69
2023-11-21T00:42:33.459Z,102392.42
2023-11-21T00:44:44.258Z,102390.98
2023-11-21T00:46:53.642Z,102391.19
2023-11-21T00:49:05.577Z,102387.63
2023-11-21T00:51:15.169Z,102390.27
2023-11-21T00:53:24.466Z,102386.03
2023-11-21T00:55:33.975Z,102395.63
2023-11-21T00:57:44.381Z,102390.39
2023-11-21T00:59:54.776Z,102392.14
2023-11-21T01:02:04.412Z,102392.08
2023-11-21T01:04:14.911Z,102400.33
2023-11-21T01:06:24.295Z,102408.20
2023-11-21T01:08:33.622Z,102415.24
2023-11-21T01:10:43.001Z,102412.88
2023-11-21T01:12:52.586Z,102410.67
2023-11-21T01:15:02.450Z,102405.42
2023-11-21T01:17:12.056Z,102401.40
2023-11-21T01:19:21.849Z,102401.69
2023-11-21T01:21:32.408Z,102406.61
2023-11-21T01:23:42.073Z,102409.40
2023-11-21T01:25:55.373Z,102409.80
2023-11-21T01:28:05.029Z,102410.81
2023-11-21T01:30:37.138Z,102412.10
2023-11-21T01:33:04.591Z,102414.64
2023-11-21T01:35:34.606Z,102413.58
2023-11-21T01:38:05.292Z,102408.48
2023-11-21T01:40:26.216Z,102410.67
2023-11-21T01:42:36.247Z,102410.83
2023-11-21T01:44:45.981Z,102412.88
2023-11-21T01:46:56.340Z,102416.27
2023-11-21T01:49:06.421Z,102415.71
2023-11-21T01:51:28.912Z,102416.23
2023-11-21T01:53:38.967Z,102413.73
2023-11-21T01:55:50.696Z,102414.58
2023-11-21T01:58:01.141Z,102414.58
2023-11-21T02:00:17.968Z,102408.92
2023-11-21T02:02:38.354Z,102412.56
2023-11-21T02:04:48.565Z,102412.21
2023-11-21T02:07:01.496Z,102411.34
2023-11-21T02:09:11.431Z,102411.87
2023-11-21T02:11:21.080Z,102416.17
2023-11-21T02:13:40.179Z,102415.71
2023-11-21T02:15:53.707Z,102410.52
2023-11-21T02:18:04.904Z,102400.26
2023-11-21T02:20:19.281Z,102400.02
2023-11-21T02:22:40.419Z,102398.45
2023-11-21T02:24:53.330Z,102408.13
2023-11-21T02:27:03.210Z,102409.19
2023-11-21T02:29:15.408Z,102413.61
2023-11-21T02:31:24.908Z,102407.70
2023-11-21T02:33:38.242Z,102402.98
2023-11-21T02:35:48.578Z,102400.55
2023-11-21T02:37:58.333Z,102390.98
2023-11-21T02:40:10.831Z,102386.80
2023-11-21T02:42:20.498Z,102386.90
2023-11-21T02:44:50.146Z,102384.04
2023-11-21T02:46:59.852Z,102382.42
2023-11-21T02:49:11.728Z,102390.92
2023-11-21T02:51:21.347Z,102386.84
2023-11-21T02:53:31.093Z,102389.14
2023-11-21T02:55:41.059Z,102387.23
2023-11-21T02:57:53.672Z,102386.79
2023-11-21T03:00:04.442Z,102378.64
2023-11-21T03:02:14.050Z,102378.52
2023-11-21T03:04:24.067Z,102379.64
2023-11-21T03:06:33.719Z,102377.13
2023-11-21T03:08:44.002Z,102383.07
2023-11-21T03:10:54.262Z,102378.13
2023-11-21T03:13:03.973Z,102380.10
2023-11-21T03:15:15.309Z,102378.13
2023-11-21T03:17:29.055Z,102373.08
2023-11-21T03:19:49.888Z,102366.86
2023-11-21T03:21:59.375Z,102368.20
2023-11-21T03:24:12.281Z,102372.52
2023-11-21T03:26:33.677Z,102374.34
2023-11-21T03:28:43.784Z,102377.54
2023-11-21T03:30:56.549Z,102377.08
2023-11-21T03:33:06.918Z,102371.93
2023-11-21T03:35:17.428Z,102372.20
2023-11-21T03:37:29.447Z,102376.04
2023-11-21T03:39:39.301Z,102380.71
2023-11-21T03:41:49.102Z,102378.94
2023-11-21T03:44:30.039Z,102380.15
2023-11-21T03:46:29.624Z,102374.13
2023-11-21T03:48:39.004Z,102374.98
2023-11-21T03:50:49.565Z,102370.11
2023-11-21T03:52:59.612Z,102379.02
2023-11-21T03:55:13.110Z,102381.07
2023-11-21T03:57:24.631Z,102379.84
2023-11-21T03:59:37.414Z,102373.71
2023-11-21T04:01:47.608Z,102369.48
2023-11-21T04:03:58.899Z,102369.35
2023-11-21T04:06:12.795Z,102354.95
2023-11-21T04:08:36.827Z,102352.76
2023-11-21T04:10:47.927Z,102347.02
2023-11-21T04:13:06.795Z,102343.95
2023-11-21T04:15:17.010Z,102345.02
2023-11-21T04:17:26.483Z,102349.92
2023-11-21T04:19:36.176Z,102351.98
2023-11-21T04:21:46.062Z,102347.08
2023-11-21T04:23:58.762Z,102350.09
2023-11-21T04:26:08.609Z,102347.94
2023-11-21T04:28:22.458Z,102343.36
2023-11-21T04:30:35.623Z,102345.71
2023-11-21T04:32:45.306Z,102346.08
2023-11-21T04:34:55.312Z,102345.48
2023-11-21T04:37:07.764Z,102348.93
2023-11-21T04:39:15.301Z,102356.38
2023-11-21T04:41:35.861Z,102358.06
2023-11-21T04:43:46.263Z,102360.56
2023-11-21T04:45:56.377Z,102362.79
2023-11-21T04:48:07.072Z,102363.78
2023-11-21T04:50:16.955Z,102366.95
2023-11-21T04:52:26.569Z,102368.13
2023-11-21T04:54:37.021Z,102365.57
2023-11-21T04:56:46.555Z,102359.51
2023-11-21T04:58:56.298Z,102360.31
2023-11-21T05:01:10.072Z,102369.30
2023-11-21T05:03:19.628Z,102371.54
2023-11-21T05:05:29.144Z,102370.56
2023-11-21T05:07:39.976Z,102368.94
2023-11-21T05:09:49.564Z,102364.42
2023-11-21T05:12:03.433Z,102360.13
2023-11-21T05:14:13.447Z,102360.25
2023-11-21T05:16:23.652Z,102363.39
2023-11-21T05:18:33.389Z,102359.06
2023-11-21T05:20:43.883Z,102352.92
2023-11-21T05:22:53.496Z,102356.71
2023-11-21T05:25:02.967Z,102366.33
2023-11-21T05:27:12.393Z,102351.04
2023-11-21T05:29:41.984Z,102355.28
2023-11-21T05:31:55.764Z,102356.31
2023-11-21T05:34:06.618Z,102351.38
2023-11-21T05:36:16.449Z,102360.55
2023-11-21T05:38:29.706Z,102351.65
2023-11-21T05:40:39.414Z,102346.59
2023-11-21T05:42:49.647Z,102351.95
2023-11-21T05:45:00.725Z,102346.81
2023-11-21T05:47:11.278Z,102343.13
2023-11-21T05:49:23.286Z,102341.02
2023-11-21T05:51:32.679Z,102340.46
2023-11-21T05:53:42.281Z,102339.63
2023-11-21T05:55:51.922Z,102334.48
2023-11-21T05:58:02.208Z,102337.03
2023-11-21T06:00:24.174Z,102335.61
2023-11-21T06:02:33.708Z,102334.74
2023-11-21T06:04:48.014Z,102335.71
2023-11-21T06:06:57.866Z,102325.96
2023-11-21T06:09:11.104Z,102326.48
2023-11-21T06:11:20.647Z,102324.89
2023-11-21T06:13:30.277Z,102327.04
2023-11-21T06:15:39.832Z,102325.85
2023-11-21T06:17:53.837Z,102325.86
2023-11-21T06:20:05.486Z,102321.46
2023-11-21T06:22:19.726Z,102318.20
2023-11-21T06:24:29.559Z,102306.17
2023-11-21T06:26:39.194Z,102302.55
2023-11-21T06:28:49.112Z,102289.04
2023-11-21T06:31:06.595Z,102288.87
2023-11-21T06:33:19.559Z,102284.23
2023-11-21T06:35:38.462Z,102281.41
2023-11-21T06:37:50.228Z,102267.99
2023-11-21T06:40:01.427Z,102274.09
2023-11-21T06:42:12.331Z,102277.86
2023-11-21T06:44:22.132Z,102276.22
2023-11-21T06:46:34.881Z,102278.34
2023-11-21T06:48:45.341Z,102275.18
2023-11-21T06:50:55.195Z,102277.66
2023-11-21T06:53:08.307Z,102268.58
2023-11-21T06:55:18.775Z,102253.48
2023-11-21T06:57:32.370Z,102242.20
2023-11-21T06:59:42.521Z,102239.58
2023-11-21T07:01:52.231Z,102232.73
2023-11-21T07:04:05.616Z,102228.79
2023-11-21T07:06:17.025Z,102214.66
2023-11-21T07:08:27.944Z,102213.77
2023-11-21T07:10:38.320Z,102204.04
2023-11-21T07:12:48.734Z,102202.07
2023-11-21T07:15:21.259Z,102198.71
2023-11-21T07:17:30.864Z,102200.64
2023-11-21T07:19:41.192Z,102209.48
2023-11-21T07:21:52.626Z,102213.23
2023-11-21T07:24:06.327Z,102208.80
2023-11-21T07:26:16.128Z,102210.05
2023-11-21T07:28:27.257Z,102209.64
2023-11-21T07:30:40.537Z,102207.94
2023-11-21T07:32:50.100Z,102214.43
2023-11-21T07:35:04.377Z,102220.01
2023-11-21T07:37:14.488Z,102222.72
2023-11-21T07:39:24.523Z,102217.98
2023-11-21T07:41:35.313Z,102219.75
2023-11-21T07:43:45.036Z,102224.66
2023-11-21T07:45:54.581Z,102218.46
2023-11-21T07:48:24.064Z,102209.23
2023-11-21T07:50:37.223Z,102204.80
2023-11-21T07:52:47.246Z,102195.09
2023-11-21T07:54:57.862Z,102195.42
2023-11-21T07:57:28.198Z,102196.86
2023-11-21T07:59:49.028Z,102194.51
2023-11-21T08:02:10.461Z,102192.64
2023-11-21T08:04:40.055Z,102191.80
2023-11-21T08:06:52.809Z,102193.35
2023-11-21T08:09:03.062Z,102188.87
2023-11-21T08:11:20.538Z,102185.59
2023-11-21T08:13:51.177Z,102186.88
2023-11-21T08:16:04.366Z,102187.52
2023-11-21T08:18:14.392Z,102180.48
2023-11-21T08:20:26.817Z,102176.27
2023-11-21T08:22:36.772Z,102166.20
2023-11-21T08:24:49.103Z,102161.04
2023-11-21T08:27:02.116Z,102162.44
2023-11-21T08:29:11.781Z,102161.21
2023-11-21T08:31:41.182Z,102165.37
2023-11-21T08:33:54.459Z,102162.50
2023-11-21T08:36:04.111Z,102162.92
2023-11-21T08:38:13.716Z,102163.42
2023-11-21T08:40:24.011Z,102160.74
2023-11-21T08:42:34.154Z,102154.56
2023-11-21T08:44:47.865Z,102151.73
2023-11-21T08:47:17.518Z,102147.35
2023-11-21T08:49:37.148Z,102148.83
2023-11-21T08:51:46.984Z,102148.67
2023-11-21T08:54:02.419Z,102139.81
2023-11-21T08:56:15.500Z,102135.03
2023-11-21T08:58:25.097Z,102133.80
2023-11-21T09:00:35.717Z,102129.45
2023-11-21T09:02:45.725Z,102125.71
2023-11-21T09:04:55.732Z,102127.48
2023-11-21T09:07:16.825Z,102121.10
2023-11-21T09:09:26.933Z,102118.04
2023-11-21T09:11:37.264Z,102128.36
2023-11-21T09:13:49.986Z,102124.23
2023-11-21T09:15:59.899Z,102124.55
2023-11-21T09:18:29.524Z,102131.55
2023-11-21T09:20:39.410Z,102128.64
2023-11-21T09:23:09.116Z,102128.58
2023-11-21T09:25:20.233Z,102119.96
2023-11-21T09:27:32.902Z,102116.87
2023-11-21T09:29:42.403Z,102123.55
2023-11-21T09:32:02.803Z,102124.42
2023-11-21T09:34:16.447Z,102112.74
2023-11-21T09:36:29.297Z,102114.11
2023-11-21T09:38:38.663Z,102106.48
2023-11-21T09:40:48.555Z,102099.17
2023-11-21T09:43:09.910Z,102099.05
2023-11-21T09:45:32.925Z,102099.52
2023-11-21T09:47:46.669Z,102099.46
2023-11-21T09:50:12.337Z,102090.33
2023-11-21T09:52:50.814Z,102086.50
2023-11-21T09:55:02.024Z,102070.86
2023-11-21T09:57:24.399Z,102063.83
2023-11-21T09:59:35.633Z,102060.23
2023-11-21T10:01:55.315Z,102056.52
2023-11-21T10:04:07.195Z,102049.42
2023-11-21T10:06:18.317Z,102053.39
2023-11-21T10:08:39.274Z,102047.59
2023-11-21T10:10:58.642Z,102057.99
2023-11-21T10:13:14.062Z,102049.52
2023-11-21T10:15:28.357Z,102040.56
2023-11-21T10:17:44.986Z,102032.27
2023-11-21T10:20:00.284Z,102034.38
2023-11-21T10:22:25.213Z,102038.73
2023-11-21T10:24:41.550Z,102044.58
2023-11-21T10:26:59.192Z,102048.61
2023-11-21T10:29:09.045Z,102043.40
2023-11-21T10:31:31.757Z,102046.48
2023-11-21T10:33:40.756Z,102052.94
2023-11-21T10:35:52.913Z,102062.54
2023-11-21T10:38:07.164Z,102058.02
2023-11-21T10:40:20.116Z,102047.96
2023-11-21T10:42:29.738Z,102043.84
2023-11-21T10:44:39.405Z,102036.75
2023-11-21T10:46:52.290Z,102032.69
2023-11-21T10:49:02.603Z,102027.81
2023-11-21T10:51:13.825Z,102026.69
2023-11-21T10:53:24.256Z,102017.66
2023-11-21T10:55:34.270Z,102016.09
2023-11-21T10:57:50.056Z,102029.14
2023-11-21T11:00:00.408Z,102039.20
2023-11-21T11:02:26.751Z,102038.23
2023-11-21T11:04:39.789Z,102031.74
2023-11-21T11:06:53.941Z,102026.73
2023-11-21T11:09:05.067Z,102029.05
2023-11-21T11:11:15.577Z,102025.38
2023-11-21T11:13:25.896Z,102026.30
2023-11-21T11:15:39.412Z,102025.95
2023-11-21T11:17:51.205Z,102019.91
2023-11-21T11:20:01.487Z,102014.09
2023-11-21T11:22:44.143Z,102023.98
2023-11-21T11:25:21.323Z,102019.14
2023-11-21T11:27:44.225Z,102011.05
2023-11-21T11:30:05.612Z,102006.50
2023-11-21T11:32:24.762Z,102011.45
2023-11-21T11:34:39.968Z,102005.02
2023-11-21T11:37:11.883Z,102001.25
2023-11-21T11:39:34.490Z,102001.73
2023-11-21T11:41:46.604Z,102008.72
2023-11-21T11:43:53.945Z,102014.85
2023-11-21T11:46:48.648Z,102015.95
2023-11-21T11:49:09.577Z,102002.34
2023-11-21T11:51:22.890Z,101993.06
2023-11-21T11:53:45.160Z,101990.10
2023-11-21T11:56:32.727Z,101992.19
2023-11-21T11:59:05.319Z,101989.45
2023-11-21T12:01:36.802Z,101990.64
2023-11-21T12:04:40.149Z,101994.19
2023-11-21T12:07:03.906Z,101989.35
2023-11-21T12:09:34.493Z,101990.94
2023-11-21T12:12:08.183Z,101987.34
2023-11-21T12:14:29.055Z,101992.61
2023-11-21T12:16:39.507Z,101997.90
2023-11-21T12:18:58.974Z,102000.56
2023-11-21T12:21:18.639Z,102005.11
2023-11-21T12:23:48.393Z,102008.23
2023-11-21T12:26:01.429Z,102009.40
2023-11-21T12:28:15.018Z,102012.81
2023-11-21T12:30:29.695Z,102015.52
2023-11-21T12:33:00.243Z,102015.25
2023-11-21T12:35:13.807Z,102018.41
2023-11-21T12:37:26.420Z,102006.23
2023-11-21T12:39:35.962Z,101996.60
2023-11-21T12:41:48.601Z,101990.19
2023-11-21T12:44:13.161Z,101988.89
2023-11-21T12:46:27.568Z,101992.10
2023-11-21T12:48:48.090Z,101992.04
2023-11-21T12:51:01.782Z,101994.37
2023-11-21T12:53:17.929Z,101989.58
2023-11-21T12:55:51.791Z,101995.92
2023-11-21T12:58:24.524Z,102016.10
2023-11-21T13:00:47.736Z,102034.20
2023-11-21T13:03:08.575Z,102029.16
2023-11-21T13:05:40.329Z,102027.33
2023-11-21T13:08:04.430Z,102026.75
2023-11-21T13:10:27.142Z,102029.00
2023-11-21T13:12:50.317Z,102022.66
2023-11-21T13:15:19.260Z,102039.89
2023-11-21T13:17:31.591Z,102055.84
2023-11-21T13:19:45.442Z,102057.66
2023-11-21T13:21:58.234Z,102058.45
2023-11-21T13:24:12.767Z,102057.52
2023-11-21T13:26:24.980Z,102077.09
2023-11-21T13:28:48.320Z,102096.15
2023-11-21T13:31:22.583Z,102105.30
2023-11-21T13:33:39.314Z,102097.19
2023-11-21T13:35:53.199Z,102074.96
2023-11-21T13:38:10.733Z,102076.86
2023-11-21T13:40:45.258Z,102095.27
2023-11-21T13:43:15.164Z,102106.34
2023-11-21T13:45:46.176Z,102093.35
2023-11-21T13:48:16.673Z,102086.67
2023-11-21T13:50:38.391Z,102083.23
2023-11-21T13:52:58.599Z,102078.66
2023-11-21T13:55:28.937Z,102076.23
2023-11-21T13:57:46.172Z,102071.02
2023-11-21T13:59:56.432Z,102074.67
2023-11-21T14:02:19.535Z,102066.55
2023-11-21T14:04:54.600Z,102070.69
2023-11-21T14:07:24.243Z,102064.08
2023-11-21T14:09:46.114Z,102075.85
2023-11-21T14:12:08.053Z,102090.36
2023-11-21T14:14:24.323Z,102092.98
2023-11-21T14:16:34.279Z,102098.86
2023-11-21T14:18:57.166Z,102097.65
2023-11-21T14:21:07.169Z,102081.52
2023-11-21T14:23:38.490Z,102076.12
2023-11-21T14:25:51.413Z,102083.38
2023-11-21T14:28:01.092Z,102086.70
2023-11-21T14:30:33.405Z,102081.12
2023-11-21T14:32:44.490Z,102063.34
2023-11-21T14:34:57.261Z,102054.73
2023-11-21T14:37:10.003Z,102063.73
2023-11-21T14:39:45.706Z,102080.33
2023-11-21T14:42:00.855Z,102091.95
2023-11-21T14:44:34.209Z,102096.34
2023-11-21T14:46:56.160Z,102102.17
2023-11-21T14:49:20.686Z,102115.14
2023-11-21T14:52:04.053Z,102123.13
2023-11-21T14:54:39.146Z,102117.63
2023-11-21T14:57:13.145Z,102121.14
2023-11-21T14:59:23.605Z,102128.65
2023-11-21T15:01:57.005Z,102126.56
2023-11-21T15:04:31.174Z,102113.23
2023-11-21T15:06:50.449Z,102099.88
2023-11-21T15:09:25.225Z,102092.38
2023-11-21T15:11:34.724Z,102094.98
2023-11-21T15:13:55.832Z,102109.05
2023-11-21T15:16:09.953Z,102113.44
2023-11-21T15:18:19.961Z,102113.11
2023-11-21T15:20:49.515Z,102114.19
2023-11-21T15:22:59.172Z,102130.95
2023-11-21T15:25:13.034Z,102130.04
2023-11-21T15:27:31.526Z,102137.35
2023-11-21T15:29:55.183Z,102146.21
2023-11-21T15:32:08.712Z,102148.56
2023-11-21T15:34:39.010Z,102148.41
2023-11-21T15:37:13.167Z,102144.63
2023-11-21T15:39:43.121Z,102131.79
2023-11-21T15:41:52.694Z,102126.45
2023-11-21T15:44:13.147Z,102131.96
2023-11-21T15:46:43.668Z,102149.36
2023-11-21T15:49:14.948Z,102154.87
2023-11-21T15:51:48.745Z,102159.15
2023-11-21T15:54:01.262Z,102175.38
2023-11-21T15:56:14.866Z,102182.63
2023-11-21T15:58:28.669Z,102185.85
2023-11-21T16:00:59.027Z,102180.11
2023-11-21T16:03:20.119Z,102180.33
2023-11-21T16:05:40.338Z,102178.98
2023-11-21T16:07:53.341Z,102169.86
2023-11-21T16:10:23.009Z,102172.40
2023-11-21T16:12:36.222Z,102178.11
2023-11-21T16:14:50.954Z,102176.92
2023-11-21T16:17:12.151Z,102168.00
2023-11-21T16:19:32.005Z,102160.38
2023-11-21T16:21:42.361Z,102153.10
2023-11-21T16:23:52.373Z,102155.73
2023-11-21T16:26:01.925Z,102154.52
2023-11-21T16:28:11.523Z,102163.46
2023-11-21T16:30:25.119Z,102173.31
2023-11-21T16:32:38.751Z,102186.54
2023-11-21T16:35:01.400Z,102174.95
2023-11-21T16:37:31.191Z,102179.23
2023-11-21T16:39:50.661Z,102183.23
2023-11-21T16:42:13.345Z,102192.77
2023-11-21T16:44:43.258Z,102189.31
2023-11-21T16:47:06.983Z,102165.02
2023-11-21T16:49:19.862Z,102162.34
2023-11-21T16:51:32.292Z,102163.83
2023-11-21T16:53:44.297Z,102167.48
2023-11-21T16:55:54.178Z,102165.09
2023-11-21T16:58:07.734Z,102159.02
2023-11-21T17:00:28.348Z,102159.35
2023-11-21T17:02:56.398Z,102165.39
2023-11-21T17:05:10.652Z,102166.17
2023-11-21T17:07:30.710Z,102172.63
2023-11-21T17:09:50.413Z,102171.64
2023-11-21T17:12:10.330Z,102168.69
2023-11-21T17:14:44.345Z,102167.43
2023-11-21T17:16:56.284Z,102173.46
2023-11-21T17:19:15.829Z,102178.52
2023-11-21T17:21:36.829Z,102185.45
2023-11-21T17:23:56.653Z,102192.66
2023-11-21T17:26:26.779Z,102188.39
2023-11-21T17:28:36.499Z,102188.55
2023-11-21T17:30:56.504Z,102187.96
2023-11-21T17:33:09.411Z,102192.83
2023-11-21T17:35:22.695Z,102183.92
2023-11-21T17:37:45.540Z,102174.42
2023-11-21T17:40:08.219Z,102175.90
2023-11-21T17:42:38.011Z,102181.02
2023-11-21T17:45:08.821Z,102188.65
2023-11-21T17:47:20.282Z,102192.99
2023-11-21T17:49:30.411Z,102189.53
2023-11-21T17:52:01.165Z,102192.69
2023-11-21T17:54:30.919Z,102200.33
2023-11-21T17:56:51.722Z,102194.44
2023-11-21T17:59:18.041Z,102194.42
2023-11-21T18:01:43.999Z,102199.70
2023-11-21T18:04:14.502Z,102204.72
2023-11-21T18:06:34.893Z,102198.77
2023-11-21T18:08:59.465Z,102189.25
2023-11-21T18:11:21.790Z,102184.98
2023-11-21T18:13:51.452Z,102183.59
2023-11-21T18:16:21.065Z,102197.11
2023-11-21T18:18:40.524Z,102203.12
2023-11-21T18:20:49.985Z,102197.36
2023-11-21T18:23:11.183Z,102193.68
2023-11-21T18:25:33.524Z,102181.81
2023-11-21T18:27:43.008Z,102178.72
2023-11-21T18:29:53.149Z,102179.31
2023-11-21T18:32:24.619Z,102189.41
2023-11-21T18:34:37.460Z,102190.98
2023-11-21T18:36:57.577Z,102183.68
2023-11-21T18:39:10.821Z,102181.96
2023-11-21T18:41:26.607Z,102192.24
2023-11-21T18:43:46.263Z,102201.95
2023-11-21T18:46:16.790Z,102195.83
2023-11-21T18:48:29.442Z,102189.49
2023-11-21T18:50:42.885Z,102187.18
2023-11-21T18:52:56.369Z,102194.46
2023-11-21T18:55:10.040Z,102203.05
2023-11-21T18:57:29.538Z,102213.63
2023-11-21T18:59:42.766Z,102207.45
2023-11-21T19:02:15.441Z,102197.08
2023-11-21T19:04:25.924Z,102192.57
2023-11-21T19:06:41.088Z,102202.84
2023-11-21T19:09:01.391Z,102201.41
2023-11-21T19:11:12.962Z,102204.73
2023-11-21T19:13:36.133Z,102203.45
2023-11-21T19:15:49.655Z,102203.95
2023-11-21T19:17:59.930Z,102208.66
2023-11-21T19:20:14.291Z,102202.25
2023-11-21T19:22:24.112Z,102199.23
2023-11-21T19:24:44.951Z,102198.68
2023-11-21T19:26:57.969Z,102205.38
2023-11-21T19:29:10.069Z,102196.05
2023-11-21T19:31:23.960Z,102186.27
2023-11-21T19:33:42.900Z,102188.44
2023-11-21T19:35:55.529Z,102188.97
2023-11-21T19:38:08.482Z,102183.73
2023-11-21T19:40:39.515Z,102182.45
2023-11-21T19:43:09.510Z,102185.23
2023-11-21T19:45:20.467Z,102180.58
2023-11-21T19:47:31.432Z,102181.31
2023-11-21T19:49:41.356Z,102173.77
2023-11-21T19:52:01.317Z,102166.52
2023-11-21T19:54:11.854Z,102170.20
2023-11-21T19:56:43.572Z,102175.43
2023-11-21T19:58:56.162Z,102169.39
2023-11-21T20:01:26.177Z,102164.36
2023-11-21T20:03:56.002Z,102156.75
2023-11-21T20:06:15.284Z,102155.53
2023-11-21T20:08:36.088Z,102158.54
2023-11-21T20:10:47.931Z,102160.23
2023-11-21T20:13:08.393Z,102152.95
2023-11-21T20:15:37.846Z,102155.84
2023-11-21T20:17:50.655Z,102161.80
2023-11-21T20:20:00.349Z,102161.18
2023-11-21T20:22:14.436Z,102165.20
2023-11-21T20:24:29.499Z,102155.01
2023-11-21T20:26:48.854Z,102156.30
2023-11-21T20:29:08.507Z,102163.11
2023-11-21T20:31:29.118Z,102161.77
2023-11-21T20:33:41.951Z,102159.14
2023-11-21T20:35:51.588Z,102154.96
2023-11-21T20:38:15.317Z,102158.72
2023-11-21T20:40:27.129Z,102154.59
2023-11-21T20:43:03.572Z,102161.73
2023-11-21T20:45:14.975Z,102168.40
2023-11-21T20:47:25.979Z,102169.27
2023-11-21T20:49:48.661Z,102165.95
2023-11-21T20:52:09.196Z,102162.44
2023-11-21T20:54:31.803Z,102164.97
2023-11-21T20:57:01.210Z,102163.42
2023-11-21T20:59:12.482Z,102161.24
2023-11-21T21:01:32.246Z,102151.42
2023-11-21T21:03:52.626Z,102151.52
2023-11-21T21:06:06.809Z,102147.08
2023-11-21T21:08:27.492Z,102148.70
2023-11-21T21:10:42.595Z,102137.23
2023-11-21T21:12:52.938Z,102143.65
2023-11-21T21:15:05.865Z,102138.86
2023-11-21T21:17:18.713Z,102136.07
2023-11-21T21:19:34.182Z,102145.84
2023-11-21T21:21:44.190Z,102148.48
2023-11-21T21:24:14.446Z,102142.86
2023-11-21T21:26:44.572Z,102136.59
2023-11-21T21:28:58.318Z,102132.64
2023-11-21T21:31:28.110Z,102134.35
2023-11-21T21:33:52.772Z,102135.56
2023-11-21T21:36:14.586Z,102127.75
2023-11-21T21:38:46.414Z,102126.11
2023-11-21T21:41:19.436Z,102117.38
2023-11-21T21:43:30.737Z,102122.75
2023-11-21T21:45:43.094Z,102111.43
2023-11-21T21:48:13.151Z,102118.78
2023-11-21T21:50:34.700Z,102109.81
2023-11-21T21:53:04.466Z,102111.52
2023-11-21T21:55:34.117Z,102110.96
2023-11-21T21:58:03.501Z,102108.52
2023-11-21T22:00:25.130Z,102103.61
2023-11-21T22:02:55.093Z,102102.00
2023-11-21T22:05:11.810Z,102103.58
2023-11-21T22:07:40.808Z,102094.01
2023-11-21T22:10:11.496Z,102092.43
2023-11-21T22:12:32.366Z,102091.43
2023-11-21T22:15:02.242Z,102094.58
2023-11-21T22:17:22.877Z,102094.21
2023-11-21T22:19:54.028Z,102092.55
2023-11-21T22:22:24.185Z,102091.79
2023-11-21T22:24:55.068Z,102096.08
2023-11-21T22:27:10.856Z,102093.65
2023-11-21T22:29:41.252Z,102097.47
2023-11-21T22:32:11.573Z,102097.00
2023-11-21T22:34:24.545Z,102089.62
2023-11-21T22:36:55.207Z,102095.66
2023-11-21T22:39:18.998Z,102098.59
2023-11-21T22:41:48.967Z,102093.16
2023-11-21T22:43:58.619Z,102092.79
2023-11-21T22:46:30.544Z,102092.20
2023-11-21T22:48:43.474Z,102089.02
2023-11-21T22:50:53.617Z,102086.87
2023-11-21T22:53:23.329Z,102086.04
2023-11-21T22:55:44.364Z,102089.20
2023-11-21T22:57:57.073Z,102080.09
2023-11-21T23:00:13.335Z,102084.67
2023-11-21T23:02:33.956Z,102095.86
2023-11-21T23:04:44.338Z,102096.70
2023-11-21T23:07:06.530Z,102092.81
2023-11-21T23:09:36.989Z,102089.65
2023-11-21T23:11:56.917Z,102090.21
2023-11-21T23:14:28.219Z,102098.39
2023-11-21T23:16:59.630Z,102101.77
2023-11-21T23:19:20.900Z,102100.63
2023-11-21T23:21:36.269Z,102107.19
2023-11-21T23:23:45.949Z,102103.47
2023-11-21T23:25:56.113Z,102099.02
2023-11-21T23:28:05.783Z,102097.11
2023-11-21T23:30:25.213Z,102090.48
2023-11-21T23:32:47.487Z,102097.16
2023-11-21T23:35:17.001Z,102095.31
2023-11-21T23:37:30.032Z,102101.19
2023-11-21T23:39:43.188Z,102099.08
2023-11-21T23:41:52.785Z,102093.48
2023-11-21T23:44:06.154Z,102089.89
2023-11-21T23:46:36.447Z,102080.52
2023-11-21T23:49:06.179Z,102085.13
2023-11-21T23:51:35.783Z,102079.69
2023-11-21T23:54:06.439Z,102079.43
2023-11-21T23:56:35.918Z,102084.05
2023-11-21T23:59:05.569Z,102073.45
